Time;durP1;ratioP1;P1;durP2;ratioP2;P2;SDS_P1;SDS_P2;PMS_P1;PMS_P2;Temp;Humidity;BMP_temperature;BMP_pressure;BME280_temperature;BME280_humidity;BME280_pressure;Samples;Min_cycle;Max_cycle;Signal;HPM_P1;HPM_P2
2022/03/06 00:01:02;;;;;;;16.23;13.63;;;;;;;0.30;79.57;101278.28;5050628;28;20180;-72
2022/03/06 00:03:27;;;;;;;13.50;12.20;;;;;;;0.50;79.35;101276.19;5052437;28;20167;-72
2022/03/06 00:05:52;;;;;;;16.27;12.23;;;;;;;0.42;79.46;101272.97;5054530;28;20509;-73
2022/03/06 00:08:18;;;;;;;13.27;12.00;;;;;;;0.16;79.73;101284.81;5054439;28;20618;-73
2022/03/06 00:10:43;;;;;;;12.37;10.70;;;;;;;0.38;80.11;101283.34;5054551;28;20172;-73
2022/03/06 00:13:08;;;;;;;10.43;9.43;;;;;;;0.66;79.55;101288.19;5057072;28;20262;-72
2022/03/06 00:15:34;;;;;;;10.07;9.10;;;;;;;0.75;79.48;101294.09;5058262;28;20203;-72
2022/03/06 00:17:59;;;;;;;9.63;8.47;;;;;;;0.83;79.30;101302.66;5055395;28;20179;-72
2022/03/06 00:20:24;;;;;;;10.83;9.83;;;;;;;0.70;78.69;101296.63;5054595;28;20512;-72
2022/03/06 00:22:50;;;;;;;10.70;9.57;;;;;;;0.70;78.20;101297.44;5054706;28;20250;-72
2022/03/06 00:25:16;;;;;;;14.00;9.40;;;;;;;0.83;78.42;101294.59;5054504;28;20171;-72
2022/03/06 00:27:41;;;;;;;9.80;8.90;;;;;;;0.74;78.63;101287.91;5053638;28;20187;-73
2022/03/06 00:30:07;;;;;;;10.03;9.10;;;;;;;1.00;78.12;101292.09;5054121;28;20187;-72
2022/03/06 00:32:32;;;;;;;9.80;8.83;;;;;;;1.02;77.73;101297.28;5053930;28;20175;-73
2022/03/06 00:34:58;;;;;;;11.13;10.10;;;;;;;0.43;78.77;101296.91;5054203;28;20175;-72
2022/03/06 00:37:23;;;;;;;12.13;10.93;;;;;;;0.28;78.83;101291.09;5053590;28;20178;-72
2022/03/06 00:39:49;;;;;;;11.47;10.00;;;;;;;0.38;79.73;101294.09;5035703;28;20202;-72
2022/03/06 00:42:14;;;;;;;10.87;9.77;;;;;;;0.65;79.76;101296.50;5049436;28;20188;-72
2022/03/06 00:44:40;;;;;;;10.73;9.63;;;;;;;0.70;79.35;101297.44;5054132;28;20202;-71
2022/03/06 00:47:05;;;;;;;28.23;10.00;;;;;;;0.78;79.64;101299.84;5054154;28;20266;-72
2022/03/06 00:49:31;;;;;;;10.30;9.40;;;;;;;0.67;79.13;101305.16;5053717;28;20611;-72
2022/03/06 00:51:58;;;;;;;10.57;8.70;;;;;;;0.78;79.54;101301.72;5053838;28;20175;-72
2022/03/06 00:54:23;;;;;;;10.70;9.60;;;;;;;0.89;79.65;101298.28;5053901;28;20210;-72
2022/03/06 00:56:48;;;;;;;10.67;9.57;;;;;;;1.08;79.44;101310.63;5053917;28;20199;-72
2022/03/06 00:59:14;;;;;;;10.80;9.73;;;;;;;1.21;79.08;101314.22;5053843;28;20365;-72
2022/03/06 01:01:40;;;;;;;9.87;8.87;;;;;;;1.25;78.59;101305.44;5053890;28;20203;-73
2022/03/06 01:04:06;;;;;;;10.20;9.23;;;;;;;1.26;78.09;101311.63;5053667;28;20714;-72
2022/03/06 01:06:31;;;;;;;9.83;8.83;;;;;;;1.14;78.08;101315.09;5053813;28;20167;-72
2022/03/06 01:08:57;;;;;;;10.30;9.03;;;;;;;1.10;78.09;101310.41;5053271;28;20171;-72
2022/03/06 01:11:23;;;;;;;9.03;8.23;;;;;;;0.73;78.51;101313.16;5053441;28;20220;-72
2022/03/06 01:13:48;;;;;;;10.87;9.80;;;;;;;0.28;80.58;101317.97;5053303;28;20175;-73
2022/03/06 01:16:14;;;;;;;10.30;9.20;;;;;;;0.27;81.61;101317.13;5052968;28;20186;-72
2022/03/06 01:18:40;;;;;;;11.53;10.47;;;;;;;0.39;81.59;101321.78;5053307;28;20226;-72
2022/03/06 01:21:06;;;;;;;11.50;10.00;;;;;;;0.60;81.68;101324.06;5053503;28;20175;-72
2022/03/06 01:23:31;;;;;;;10.37;8.23;;;;;;;0.64;81.80;101324.44;5053482;28;20163;-72
2022/03/06 01:25:57;;;;;;;12.53;9.60;;;;;;;0.36;82.21;101328.44;5053423;28;20186;-72
2022/03/06 01:28:23;;;;;;;10.23;9.33;;;;;;;0.24;82.08;101320.28;5053040;28;20292;-72
2022/03/06 01:30:48;;;;;;;10.77;9.70;;;;;;;0.25;82.27;101323.78;5053372;28;20743;-72
2022/03/06 01:33:13;;;;;;;10.07;9.10;;;;;;;0.14;83.19;101324.50;5053241;28;20175;-72
2022/03/06 01:35:39;;;;;;;10.83;9.83;;;;;;;0.08;83.39;101330.78;5053568;28;20202;-72
2022/03/06 01:38:04;;;;;;;11.30;10.23;;;;;;;-0.02;84.58;101332.06;5053036;28;20255;-72
2022/03/06 01:40:30;;;;;;;10.03;9.03;;;;;;;0.11;84.21;101320.41;5053111;28;20274;-72
2022/03/06 01:42:55;;;;;;;12.07;8.60;;;;;;;0.33;84.21;101328.06;5053169;28;20210;-72
2022/03/06 01:45:23;;;;;;;10.93;9.90;;;;;;;0.34;83.66;101329.72;5053132;28;20175;-72
2022/03/06 01:47:51;;;;;;;12.33;10.10;;;;;;;0.26;83.37;101330.81;5052873;28;20171;-72
2022/03/06 01:50:27;;;;;;;14.60;9.50;;;;;;;0.18;83.41;101329.22;5052636;28;20175;-72
2022/03/06 01:52:54;;;;;;;11.43;9.70;;;;;;;0.23;83.73;101325.88;5052547;28;20155;-72
2022/03/06 01:55:22;;;;;;;13.53;9.63;;;;;;;0.17;84.06;101326.78;5052456;28;20661;-72
2022/03/06 01:57:48;;;;;;;12.13;10.03;;;;;;;0.10;83.63;101336.75;5034198;28;20203;-72
2022/03/06 02:00:17;;;;;;;12.87;10.20;;;;;;;0.21;84.44;101333.34;5052298;28;20226;-73
2022/03/06 02:02:44;;;;;;;10.07;9.03;;;;;;;0.10;84.32;101339.44;5052576;28;20266;-72
2022/03/06 02:05:09;;;;;;;10.33;9.33;;;;;;;0.07;84.51;101324.56;5052244;28;20446;-72
2022/03/06 02:07:34;;;;;;;12.57;10.30;;;;;;;0.21;84.55;101327.97;5051880;28;20417;-73
2022/03/06 02:10:01;;;;;;;10.53;9.23;;;;;;;0.09;84.91;101327.03;5052202;28;20580;-72
2022/03/06 02:12:27;;;;;;;11.47;9.40;;;;;;;0.05;85.09;101331.22;5051972;28;20176;-72
2022/03/06 02:14:57;;;;;;;11.27;10.07;;;;;;;0.06;85.35;101322.13;5051821;28;20175;-72
2022/03/06 02:17:24;;;;;;;10.87;9.63;;;;;;;0.11;85.43;101323.09;5051744;28;20183;-72
2022/03/06 02:19:52;;;;;;;10.07;9.07;;;;;;;0.22;85.86;101324.22;5051908;28;20199;-72
2022/03/06 02:22:31;;;;;;;11.10;9.73;;;;;;;0.29;86.29;101312.38;5051992;28;20167;-72
2022/03/06 02:24:58;;;;;;;12.70;9.10;;;;;;;0.45;85.64;101320.91;5052229;28;20630;-72
2022/03/06 02:27:23;;;;;;;10.87;9.70;;;;;;;0.37;85.51;101311.25;5051360;28;20270;-72
2022/03/06 02:29:49;;;;;;;10.80;9.53;;;;;;;0.28;85.70;101313.41;5051578;28;20682;-72
2022/03/06 02:32:18;;;;;;;11.17;9.40;;;;;;;0.13;85.55;101312.94;5051757;28;20171;-72
2022/03/06 02:34:45;;;;;;;11.13;10.00;;;;;;;-0.04;86.31;101320.72;5049619;28;20647;-72
2022/03/06 02:37:12;;;;;;;10.77;9.67;;;;;;;0.00;86.94;101310.41;5051532;28;20170;-72
2022/03/06 02:39:37;;;;;;;11.43;9.57;;;;;;;0.04;87.56;101310.78;5051944;28;20628;-72
2022/03/06 02:42:04;;;;;;;10.30;9.40;;;;;;;0.08;87.43;101311.97;5051965;28;20271;-72
2022/03/06 02:44:30;;;;;;;10.87;9.77;;;;;;;0.04;87.83;101316.97;5052022;28;20171;-72
2022/03/06 02:46:56;;;;;;;12.27;8.83;;;;;;;0.11;87.99;101303.47;5051628;28;20203;-72
2022/03/06 02:49:21;;;;;;;10.77;8.97;;;;;;;0.17;88.35;101306.09;5051775;28;20218;-72
2022/03/06 02:51:47;;;;;;;13.80;9.53;;;;;;;0.20;87.76;101313.72;5052063;28;20187;-72
2022/03/06 02:54:17;;;;;;;9.30;8.40;;;;;;;0.21;87.97;101307.28;5051831;28;20179;-72
2022/03/06 02:56:43;;;;;;;10.90;9.17;;;;;;;0.17;87.63;101306.09;5051708;28;20171;-73
2022/03/06 02:59:08;;;;;;;9.93;8.93;;;;;;;0.10;88.26;101308.00;5051572;28;20677;-72
2022/03/06 03:01:41;;;;;;;9.60;8.57;;;;;;;0.13;88.76;101310.25;5051698;28;20175;-73
2022/03/06 03:04:09;;;;;;;10.03;9.10;;;;;;;0.01;88.77;101311.22;5051885;28;20519;-72
2022/03/06 03:06:35;;;;;;;9.57;8.57;;;;;;;0.03;89.46;101306.44;5051844;28;20194;-73
2022/03/06 03:09:06;;;;;;;9.23;8.33;;;;;;;0.04;89.56;101303.53;5033325;28;20642;-72
2022/03/06 03:11:32;;;;;;;10.97;8.37;;;;;;;-0.06;89.95;101298.66;5051842;28;20236;-73
2022/03/06 03:13:59;;;;;;;11.37;8.23;;;;;;;-0.03;90.33;101298.19;5051348;28;20171;-72
2022/03/06 03:16:24;;;;;;;11.90;8.77;;;;;;;0.04;90.67;101295.47;5051711;28;20225;-73
2022/03/06 03:18:50;;;;;;;9.60;8.70;;;;;;;0.07;89.96;101310.31;5051228;28;20601;-72
2022/03/06 03:21:15;;;;;;;9.17;8.27;;;;;;;0.17;90.73;101297.22;5051432;28;20258;-73
2022/03/06 03:23:40;;;;;;;8.93;8.03;;;;;;;0.46;90.16;101303.75;5051431;28;20175;-72
2022/03/06 03:26:06;;;;;;;9.33;8.30;;;;;;;0.43;89.05;101302.28;5051685;28;20569;-72
2022/03/06 03:28:31;;;;;;;10.23;9.30;;;;;;;0.49;89.48;101300.59;5050727;28;20627;-73
2022/03/06 03:30:56;;;;;;;10.07;9.17;;;;;;;0.16;89.28;101298.25;5051286;28;20183;-73
2022/03/06 03:33:22;;;;;;;12.60;8.37;;;;;;;0.00;90.36;101305.03;5051519;28;20229;-72
2022/03/06 03:35:47;;;;;;;9.00;8.20;;;;;;;-0.05;91.27;101302.97;5051218;28;20183;-72
2022/03/06 03:38:12;;;;;;;11.50;8.07;;;;;;;0.04;91.76;101310.78;5050521;28;20597;-72
2022/03/06 03:40:38;;;;;;;10.20;8.13;;;;;;;0.01;91.74;101308.53;5051263;28;20179;-73
2022/03/06 03:43:03;;;;;;;11.30;8.77;;;;;;;-0.14;92.92;101309.69;5050994;28;20175;-72
2022/03/06 03:45:28;;;;;;;10.10;8.63;;;;;;;-0.14;92.97;101309.69;5050909;28;20186;-72
2022/03/06 03:47:54;;;;;;;8.97;8.17;;;;;;;-0.02;92.96;101310.59;5050544;28;20671;-72
2022/03/06 03:50:19;;;;;;;16.10;8.50;;;;;;;-0.05;93.07;101310.22;5050874;28;20202;-73
2022/03/06 03:52:44;;;;;;;10.80;7.43;;;;;;;-0.16;94.01;101311.75;5050622;28;20236;-73
2022/03/06 03:55:10;;;;;;;9.37;8.37;;;;;;;-0.18;94.96;101305.78;5050723;28;20183;-72
2022/03/06 03:57:35;;;;;;;9.47;8.53;;;;;;;0.00;94.70;101321.13;5050667;28;20175;-72
2022/03/06 04:00:01;;;;;;;10.33;8.63;;;;;;;0.20;94.26;101323.63;5051288;28;20202;-73
2022/03/06 04:02:26;;;;;;;9.50;8.07;;;;;;;0.11;93.99;101323.09;5050902;28;20179;-72
2022/03/06 04:04:51;;;;;;;10.50;8.50;;;;;;;-0.10;93.99;101310.88;5050770;28;20199;-72
2022/03/06 04:07:17;;;;;;;8.30;7.50;;;;;;;-0.07;94.23;101321.19;5050282;28;20280;-72
2022/03/06 04:09:42;;;;;;;6.83;6.17;;;;;;;-0.08;94.64;101318.72;5050694;28;20619;-73
2022/03/06 04:12:08;;;;;;;7.33;6.57;;;;;;;0.12;94.12;101329.28;5050712;28;20498;-73
2022/03/06 04:14:34;;;;;;;14.77;7.27;;;;;;;0.15;93.79;101324.31;5050612;28;20653;-72
2022/03/06 04:16:59;;;;;;;7.40;6.70;;;;;;;0.04;94.04;101316.13;5050758;28;20232;-72
2022/03/06 04:19:24;;;;;;;8.03;6.50;;;;;;;-0.02;93.82;101325.88;5051166;28;20210;-72
2022/03/06 04:21:50;;;;;;;6.87;6.10;;;;;;;-0.05;94.28;101329.84;5050722;28;20179;-73
2022/03/06 04:24:15;;;;;;;7.30;6.50;;;;;;;0.01;94.33;101330.84;5050638;28;20178;-73
2022/03/06 04:26:41;;;;;;;6.00;5.50;;;;;;;0.15;93.94;101328.84;5050368;28;20181;-73
2022/03/06 04:29:06;;;;;;;6.77;6.17;;;;;;;-0.02;94.23;101328.56;5050478;28;20533;-72
2022/03/06 04:31:32;;;;;;;5.90;5.40;;;;;;;-0.04;93.73;101322.59;5050575;28;20262;-72
2022/03/06 04:33:57;;;;;;;5.03;4.47;;;;;;;0.03;93.49;101334.13;5050666;28;20190;-72
2022/03/06 04:36:23;;;;;;;5.43;5.00;;;;;;;-0.05;93.70;101329.84;5050528;28;20237;-73
2022/03/06 04:38:48;;;;;;;8.27;5.50;;;;;;;-0.12;93.94;101336.31;5050398;28;20200;-72
2022/03/06 04:41:15;;;;;;;6.47;5.60;;;;;;;-0.19;94.46;101339.03;5050908;28;20631;-72
2022/03/06 04:43:41;;;;;;;5.83;5.33;;;;;;;-0.21;94.40;101338.44;5050447;28;20688;-74
2022/03/06 04:46:06;;;;;;;5.30;4.83;;;;;;;-0.24;94.52;101343.44;5049869;28;20187;-72
2022/03/06 04:48:32;;;;;;;5.50;5.00;;;;;;;-0.26;94.89;101340.97;5049788;28;20590;-72
2022/03/06 04:50:57;;;;;;;7.20;5.50;;;;;;;-0.25;95.52;101349.84;5052409;28;20262;-73
2022/03/06 04:53:22;;;;;;;7.77;5.30;;;;;;;-0.25;95.44;101352.53;5053483;28;20847;-73
2022/03/06 04:55:48;;;;;;;5.53;4.53;;;;;;;-0.25;95.73;101350.66;5053215;28;20167;-74
2022/03/06 04:58:13;;;;;;;6.00;5.50;;;;;;;-0.29;95.69;101352.13;5052708;28;20635;-74
2022/03/06 05:00:39;;;;;;;6.70;5.53;;;;;;;-0.30;96.36;101353.16;5053432;28;20180;-73
2022/03/06 05:03:04;;;;;;;6.07;5.20;;;;;;;-0.27;96.15;101359.97;5052770;28;20179;-74
2022/03/06 05:05:30;;;;;;;5.47;4.97;;;;;;;-0.31;96.43;101359.56;5052256;28;20383;-79
2022/03/06 05:07:55;;;;;;;5.37;4.87;;;;;;;-0.36;96.48;101352.16;5050335;28;20631;-74
2022/03/06 05:10:21;;;;;;;7.73;5.13;;;;;;;-0.33;96.66;101348.22;5053635;28;20580;-73
2022/03/06 05:12:46;;;;;;;5.70;4.80;;;;;;;-0.34;96.38;101355.47;5053423;28;20196;-74
2022/03/06 05:15:13;;;;;;;7.87;6.37;;;;;;;-0.33;96.66;101351.72;5035088;28;20182;-75
2022/03/06 05:17:39;;;;;;;9.87;6.07;;;;;;;-0.35;96.68;101353.00;5053350;28;20265;-73
2022/03/06 05:20:06;;;;;;;10.27;6.87;;;;;;;-0.33;96.24;101354.41;5053119;28;20563;-74
2022/03/06 05:22:32;;;;;;;6.20;5.70;;;;;;;-0.37;95.90;101347.03;5053189;28;20551;-74
2022/03/06 05:25:00;;;;;;;6.83;6.17;;;;;;;-0.34;96.61;101358.16;5052972;28;20500;-74
2022/03/06 05:27:26;;;;;;;9.03;6.23;;;;;;;-0.38;96.42;101350.75;5052709;28;20182;-74
2022/03/06 05:29:52;;;;;;;7.03;6.43;;;;;;;-0.34;96.40;101351.94;5053075;28;20391;-73
2022/03/06 05:32:17;;;;;;;6.77;6.07;;;;;;;-0.31;95.63;101351.50;5053235;28;20649;-73
2022/03/06 05:34:43;;;;;;;9.90;5.90;;;;;;;-0.38;95.58;101346.19;5052974;28;20242;-75
2022/03/06 05:37:08;;;;;;;5.40;4.90;;;;;;;-0.32;95.38;101352.56;5052574;28;20258;-74
2022/03/06 05:39:33;;;;;;;6.13;5.63;;;;;;;-0.34;94.85;101354.63;5052913;28;20204;-74
2022/03/06 05:41:59;;;;;;;6.17;5.00;;;;;;;-0.38;94.34;101354.25;5052739;28;20221;-75
2022/03/06 05:44:24;;;;;;;7.67;5.03;;;;;;;-0.39;94.24;101351.78;5052839;28;20163;-73
2022/03/06 05:46:50;;;;;;;5.03;4.63;;;;;;;-0.40;94.35;101367.06;5052829;28;20255;-75
2022/03/06 05:49:15;;;;;;;4.77;4.23;;;;;;;-0.41;94.51;101364.63;5052918;28;20179;-75
2022/03/06 05:51:42;;;;;;;5.23;4.43;;;;;;;-0.44;94.96;101368.53;5052615;28;20254;-78
2022/03/06 05:54:08;;;;;;;9.77;4.53;;;;;;;-0.43;94.79;101362.16;5052782;28;20183;-75
2022/03/06 05:56:34;;;;;;;4.97;4.47;;;;;;;-0.45;94.96;101366.88;5052720;28;20406;-74
2022/03/06 05:59:00;;;;;;;5.00;4.50;;;;;;;-0.44;95.02;101370.38;5052665;28;20467;-73
2022/03/06 06:01:25;;;;;;;5.10;4.60;;;;;;;-0.46;95.22;101381.34;5052363;28;20179;-72
2022/03/06 06:03:51;;;;;;;5.90;5.03;;;;;;;-0.44;95.45;101378.44;5052790;28;20171;-76
2022/03/06 06:06:16;;;;;;;5.20;4.63;;;;;;;-0.43;95.73;101380.13;5052652;28;20634;-74
2022/03/06 06:08:41;;;;;;;4.93;4.53;;;;;;;-0.43;95.57;101375.56;5052765;28;20175;-74
2022/03/06 06:11:07;;;;;;;4.93;4.43;;;;;;;-0.43;95.66;101382.78;5052514;28;20186;-77
2022/03/06 06:13:33;;;;;;;4.90;4.30;;;;;;;-0.45;95.34;101384.84;5052521;28;20229;-74
2022/03/06 06:15:59;;;;;;;5.00;4.60;;;;;;;-0.38;94.88;101399.06;5052267;28;20168;-75
2022/03/06 06:18:27;;;;;;;6.17;5.37;;;;;;;-0.45;94.97;101393.72;5052093;28;21010;-74
2022/03/06 06:20:53;;;;;;;5.17;4.70;;;;;;;-0.42;94.81;101393.31;5052093;28;20171;-74
2022/03/06 06:23:19;;;;;;;5.53;5.10;;;;;;;-0.41;95.07;101394.13;5052188;28;20410;-74
2022/03/06 06:25:44;;;;;;;5.77;4.83;;;;;;;-0.41;94.88;101402.19;5052389;28;20422;-73
2022/03/06 06:28:09;;;;;;;4.77;4.27;;;;;;;-0.44;95.45;101400.72;5050529;28;20183;-73
2022/03/06 06:30:35;;;;;;;5.17;4.77;;;;;;;-0.43;95.36;101402.41;5051344;28;20259;-73
2022/03/06 06:33:00;;;;;;;7.77;5.13;;;;;;;-0.45;95.26;101399.09;5051351;28;20171;-74
2022/03/06 06:35:25;;;;;;;5.43;4.93;;;;;;;-0.45;95.08;101403.63;5051372;28;20171;-74
2022/03/06 06:37:51;;;;;;;5.23;4.80;;;;;;;-0.44;95.72;101413.34;5051370;28;20168;-72
2022/03/06 06:40:16;;;;;;;6.70;4.53;;;;;;;-0.42;95.25;101404.06;5051223;28;20206;-74
2022/03/06 06:42:41;;;;;;;5.70;5.20;;;;;;;-0.36;94.97;101408.53;5051173;28;20206;-74
2022/03/06 06:45:07;;;;;;;6.97;5.70;;;;;;;-0.33;94.59;101409.97;5051207;28;20175;-74
2022/03/06 06:47:33;;;;;;;4.77;4.40;;;;;;;-0.41;94.58;101407.56;5050707;28;20224;-74
2022/03/06 06:49:58;;;;;;;7.57;4.50;;;;;;;-0.31;93.95;101405.22;5050896;28;20178;-74
2022/03/06 06:52:23;;;;;;;6.43;5.73;;;;;;;-0.30;94.14;101409.53;5051136;28;20175;-74
2022/03/06 06:54:49;;;;;;;7.50;5.37;;;;;;;-0.24;93.75;101413.25;5050951;28;20577;-74
2022/03/06 06:57:14;;;;;;;4.57;4.13;;;;;;;-0.25;93.33;101416.97;5050591;28;20175;-74
2022/03/06 06:59:39;;;;;;;5.37;4.87;;;;;;;-0.28;93.01;101418.22;5050688;28;20218;-73
2022/03/06 07:02:05;;;;;;;4.70;4.03;;;;;;;-0.27;92.59;101425.25;5050951;28;20187;-74
2022/03/06 07:04:30;;;;;;;5.17;4.67;;;;;;;-0.20;92.23;101419.81;5050645;28;20195;-75
2022/03/06 07:06:55;;;;;;;4.43;4.03;;;;;;;-0.14;92.19;101425.16;5050677;28;20182;-74
2022/03/06 07:09:21;;;;;;;9.53;4.90;;;;;;;-0.20;91.97;101426.00;5050669;28;20647;-73
2022/03/06 07:11:46;;;;;;;4.57;4.17;;;;;;;-0.20;92.08;101430.56;5050552;28;20242;-74
2022/03/06 07:14:11;;;;;;;7.20;5.27;;;;;;;-0.26;91.92;101432.25;5050497;28;20182;-73
2022/03/06 07:16:37;;;;;;;5.77;5.23;;;;;;;-0.24;91.87;101430.16;5050661;28;20497;-72
2022/03/06 07:19:04;;;;;;;5.40;4.90;;;;;;;-0.19;91.69;101424.97;5051939;28;20281;-74
2022/03/06 07:21:29;;;;;;;4.40;4.07;;;;;;;-0.13;91.87;101424.13;5050645;28;20182;-74
2022/03/06 07:23:54;;;;;;;7.37;5.23;;;;;;;-0.13;91.73;101432.19;5050685;28;20171;-73
2022/03/06 07:26:20;;;;;;;5.47;4.93;;;;;;;-0.13;91.43;101434.88;5050636;28;20199;-74
2022/03/06 07:28:45;;;;;;;5.47;4.97;;;;;;;-0.09;91.54;101437.94;5050157;28;20281;-74
2022/03/06 07:31:11;;;;;;;6.00;5.40;;;;;;;-0.16;91.55;101442.50;5050411;28;20179;-73
2022/03/06 07:33:36;;;;;;;5.27;4.83;;;;;;;-0.11;91.23;101440.84;5050280;28;20172;-73
2022/03/06 07:36:01;;;;;;;6.77;5.07;;;;;;;-0.01;91.06;101443.84;5050404;28;20631;-73
2022/03/06 07:38:27;;;;;;;5.70;5.17;;;;;;;0.19;90.38;101442.91;5050089;28;20245;-73
2022/03/06 07:40:52;;;;;;;5.17;4.77;;;;;;;0.18;89.43;101450.16;5050109;28;20757;-73
2022/03/06 07:43:17;;;;;;;5.83;5.23;;;;;;;0.15;88.79;101439.84;5050233;28;20175;-73
2022/03/06 07:45:43;;;;;;;7.10;6.40;;;;;;;0.08;88.49;101441.72;5050171;28;20201;-74
2022/03/06 07:48:08;;;;;;;6.13;5.53;;;;;;;0.00;88.21;101455.44;5049902;28;20182;-73
2022/03/06 07:50:33;;;;;;;7.47;5.23;;;;;;;0.01;88.15;101462.47;5050289;28;20177;-73
2022/03/06 07:52:59;;;;;;;6.17;5.50;;;;;;;0.16;88.10;101462.97;5050297;28;20174;-73
2022/03/06 07:55:24;;;;;;;4.50;4.20;;;;;;;0.17;87.59;101461.13;5050101;28;20554;-74
2022/03/06 07:57:50;;;;;;;5.00;4.00;;;;;;;0.17;86.87;101456.56;5049805;28;20168;-73
2022/03/06 08:00:15;;;;;;;5.30;4.63;;;;;;;0.17;87.04;101461.94;5049902;28;20218;-73
2022/03/06 08:02:41;;;;;;;5.90;4.57;;;;;;;0.34;86.51;101464.09;5050038;28;20220;-74
2022/03/06 08:05:08;;;;;;;6.13;4.73;;;;;;;0.32;85.73;101464.31;5050047;28;20167;-73
2022/03/06 08:07:33;;;;;;;5.63;4.97;;;;;;;0.23;85.37;101465.59;5049725;28;20175;-73
2022/03/06 08:09:59;;;;;;;5.57;5.07;;;;;;;0.23;85.95;101470.97;5049986;28;20164;-74
2022/03/06 08:12:26;;;;;;;5.33;4.83;;;;;;;0.31;85.38;101473.41;5050011;28;20167;-73
2022/03/06 08:14:52;;;;;;;5.07;4.57;;;;;;;0.37;85.22;101472.53;5049826;28;20654;-73
2022/03/06 08:17:18;;;;;;;5.50;5.00;;;;;;;0.24;83.75;101472.63;5049844;28;20160;-73
2022/03/06 08:19:44;;;;;;;5.00;4.60;;;;;;;0.29;84.19;101480.88;5049942;28;20210;-74
2022/03/06 08:22:09;;;;;;;13.20;4.90;;;;;;;0.36;83.87;101473.56;5049895;28;20171;-73
2022/03/06 08:24:34;;;;;;;6.77;4.53;;;;;;;0.42;83.50;101480.75;5051910;28;20167;-74
2022/03/06 08:27:00;;;;;;;3.90;3.60;;;;;;;0.29;82.79;101481.69;5053589;28;20588;-73
2022/03/06 08:29:25;;;;;;;3.93;3.53;;;;;;;0.34;82.37;101478.34;5053483;28;20269;-73
2022/03/06 08:31:50;;;;;;;6.77;4.00;;;;;;;0.33;82.54;101479.38;5053874;28;20172;-73
2022/03/06 08:34:16;;;;;;;4.03;3.63;;;;;;;0.38;81.89;101484.94;5053837;28;20381;-74
2022/03/06 08:36:41;;;;;;;4.27;3.73;;;;;;;0.38;82.57;101493.00;5053289;28;20217;-74
2022/03/06 08:39:07;;;;;;;4.40;4.00;;;;;;;0.42;82.47;101499.56;5053972;28;20573;-73
2022/03/06 08:41:33;;;;;;;8.20;3.80;;;;;;;0.52;82.05;101499.91;5053284;28;20167;-74
2022/03/06 08:43:58;;;;;;;5.33;3.57;;;;;;;0.49;81.71;101496.84;5053372;28;20177;-72
2022/03/06 08:46:24;;;;;;;3.37;3.17;;;;;;;0.49;81.34;101500.34;5053255;28;20176;-73
2022/03/06 08:48:49;;;;;;;3.60;2.53;;;;;;;0.50;80.86;101511.94;5053166;28;20176;-73
2022/03/06 08:51:15;;;;;;;4.10;3.63;;;;;;;0.60;81.08;101498.81;5053421;28;20591;-73
2022/03/06 08:53:40;;;;;;;4.00;3.63;;;;;;;0.73;81.00;101505.97;5053667;28;20587;-73
2022/03/06 08:56:06;;;;;;;3.33;3.13;;;;;;;0.68;80.63;101503.91;5035240;28;20171;-74
2022/03/06 08:58:31;;;;;;;4.80;3.60;;;;;;;0.64;80.07;101509.97;5053092;28;20221;-74
2022/03/06 09:00:57;;;;;;;4.67;3.77;;;;;;;0.66;78.85;101499.81;5053137;28;20228;-73
2022/03/06 09:03:22;;;;;;;3.97;3.27;;;;;;;0.70;79.30;101499.13;5052981;28;20206;-73
2022/03/06 09:05:47;;;;;;;3.47;2.47;;;;;;;0.82;78.88;101512.69;5053194;28;20266;-74
2022/03/06 09:08:13;;;;;;;5.33;3.10;;;;;;;0.94;79.07;101507.41;5052702;28;20703;-73
2022/03/06 09:10:40;;;;;;;7.73;3.47;;;;;;;0.94;78.87;101510.94;5052889;28;20172;-74
2022/03/06 09:13:07;;;;;;;3.67;3.03;;;;;;;0.94;79.27;101513.63;5052867;28;20225;-74
2022/03/06 09:15:32;;;;;;;4.20;3.00;;;;;;;0.82;78.47;101507.31;5052830;28;20191;-73
2022/03/06 09:17:58;;;;;;;3.70;3.23;;;;;;;0.86;78.30;101511.19;5052555;28;20210;-73
2022/03/06 09:20:24;;;;;;;3.97;3.17;;;;;;;0.86;77.52;101512.03;5052688;28;20207;-73
2022/03/06 09:22:50;;;;;;;2.83;2.57;;;;;;;0.84;77.67;101503.34;5052729;28;20164;-73
2022/03/06 09:25:15;;;;;;;2.77;2.33;;;;;;;0.85;77.73;101505.00;5052678;28;20229;-73
2022/03/06 09:27:41;;;;;;;3.17;2.83;;;;;;;1.00;77.88;101510.03;5052089;28;20245;-74
2022/03/06 09:30:07;;;;;;;3.53;2.70;;;;;;;1.02;77.30;101509.84;5053049;28;20189;-73
2022/03/06 09:32:33;;;;;;;2.57;2.37;;;;;;;0.96;76.64;101508.84;5052781;28;20583;-73
2022/03/06 09:34:58;;;;;;;2.40;1.97;;;;;;;1.05;75.97;101512.09;5052154;28;20179;-73
2022/03/06 09:37:23;;;;;;;2.83;2.63;;;;;;;1.19;76.06;101518.97;5051728;28;20175;-73
2022/03/06 09:39:49;;;;;;;3.27;2.80;;;;;;;1.04;76.04;101511.25;5051956;28;20238;-74
2022/03/06 09:42:19;;;;;;;5.57;2.23;;;;;;;1.12;76.03;101521.72;5052454;28;20171;-73
2022/03/06 09:44:48;;;;;;;2.93;2.37;;;;;;;1.18;75.56;101515.47;5052504;28;20167;-73
2022/03/06 09:47:15;;;;;;;4.80;3.03;;;;;;;1.26;74.67;101514.34;5052373;28;20250;-73
2022/03/06 09:49:43;;;;;;;3.77;2.50;;;;;;;1.21;73.65;101527.66;5052195;28;20178;-73
2022/03/06 09:52:09;;;;;;;3.47;2.30;;;;;;;1.19;73.58;101527.88;5052059;28;20539;-73
2022/03/06 09:54:34;;;;;;;4.10;3.63;;;;;;;1.27;73.49;101531.31;5052313;28;20175;-73
2022/03/06 09:57:00;;;;;;;7.13;3.97;;;;;;;1.14;73.61;101532.25;5051833;28;20176;-74
2022/03/06 09:59:26;;;;;;;4.30;2.77;;;;;;;1.13;73.99;101527.94;5052030;28;20214;-73
2022/03/06 10:01:51;;;;;;;3.53;3.20;;;;;;;1.07;74.56;101534.22;5052379;28;20175;-74
2022/03/06 10:04:25;;;;;;;3.20;2.63;;;;;;;1.20;74.82;101536.78;5051986;28;20270;-72
2022/03/06 10:07:23;;;;;;;7.27;2.63;;;;;;;1.10;74.46;101539.97;5051727;28;20179;-73
2022/03/06 10:09:51;;;;;;;3.77;3.00;;;;;;;1.09;73.80;101532.94;5007593;28;20651;-74
2022/03/06 10:12:40;;;;;;;2.77;2.17;;;;;;;1.34;74.13;101537.47;5052026;28;20317;-73
2022/03/06 10:15:07;;;;;;;3.43;3.10;;;;;;;1.38;74.38;101533.25;5051678;28;20509;-73
2022/03/06 10:17:34;;;;;;;3.47;2.70;;;;;;;1.44;73.36;101527.78;5051417;28;20209;-73
2022/03/06 10:20:05;;;;;;;3.00;2.60;;;;;;;1.49;72.45;101527.16;5051668;28;20206;-73
2022/03/06 10:22:40;;;;;;;3.47;3.17;;;;;;;1.54;72.19;101521.91;5051575;28;20171;-73
2022/03/06 10:25:16;;;;;;;6.03;3.00;;;;;;;1.49;71.35;101522.59;5051596;28;20177;-74
2022/03/06 10:27:48;;;;;;;3.47;3.17;;;;;;;1.48;70.70;101522.81;5050967;28;20681;-73
2022/03/06 10:30:38;;;;;;;3.77;3.47;;;;;;;1.56;69.87;101518.97;5033528;28;20182;-73
2022/03/06 10:33:10;;;;;;;3.73;3.43;;;;;;;1.36;69.41;101516.53;5051484;28;20194;-73
2022/03/06 10:35:43;;;;;;;3.80;3.43;;;;;;;1.46;69.83;101524.91;5051250;28;20175;-73
2022/03/06 10:38:23;;;;;;;3.37;3.07;;;;;;;1.33;68.98;101523.19;5051117;28;20171;-73
2022/03/06 10:40:50;;;;;;;3.10;2.90;;;;;;;1.50;69.35;101531.47;5050878;28;20429;-73
2022/03/06 10:43:32;;;;;;;4.03;3.63;;;;;;;1.44;68.63;101524.28;5033524;28;20529;-73
2022/03/06 10:46:24;;;;;;;5.07;3.37;;;;;;;1.39;68.53;101524.16;5051033;28;20171;-73
2022/03/06 10:48:56;;;;;;;3.50;3.20;;;;;;;1.49;68.71;101529.84;5046027;28;20553;-74
2022/03/06 10:51:22;;;;;;;4.20;3.30;;;;;;;1.63;68.88;101522.44;5051408;28;20640;-73
2022/03/06 10:53:52;;;;;;;5.13;4.03;;;;;;;1.67;68.67;101527.13;5051088;28;20565;-73
2022/03/06 10:56:18;;;;;;;4.37;3.90;;;;;;;1.64;68.76;101529.47;5050833;28;20179;-74
2022/03/06 10:58:45;;;;;;;3.37;3.07;;;;;;;1.53;68.87;101520.25;5032940;28;20198;-73
2022/03/06 11:01:12;;;;;;;4.80;4.30;;;;;;;1.68;68.71;101519.88;5050814;28;20296;-73
2022/03/06 11:03:38;;;;;;;2.37;2.20;;;;;;;1.57;67.96;101520.63;5050872;28;20214;-74
2022/03/06 11:06:04;;;;;;;3.67;3.27;;;;;;;1.68;68.25;101522.56;5050698;28;20210;-73
2022/03/06 11:08:30;;;;;;;3.20;2.90;;;;;;;1.74;67.61;101524.38;5050522;28;20206;-73
2022/03/06 11:10:56;;;;;;;4.40;3.73;;;;;;;1.83;67.01;101524.88;5050678;28;20176;-73
2022/03/06 11:13:22;;;;;;;3.33;3.03;;;;;;;1.79;66.84;101517.25;5050811;28;20171;-73
2022/03/06 11:15:49;;;;;;;3.57;3.13;;;;;;;1.67;66.92;101520.91;5032797;28;20218;-73
2022/03/06 11:18:14;;;;;;;7.40;2.93;;;;;;;1.84;67.43;101510.34;5050423;28;20171;-74
2022/03/06 11:20:42;;;;;;;4.33;3.63;;;;;;;1.76;67.26;101514.19;5050989;28;20210;-73
2022/03/06 11:23:20;;;;;;;3.20;2.97;;;;;;;1.60;66.88;101504.84;5050479;28;20210;-73